sensor_id;sensor_type;location;lat;lon;timestamp;temperature;humidity
46356;DHT22;32066;49.474;11.106;2022-09-09T00:02:18;16.40;87.00
46356;DHT22;32066;49.474;11.106;2022-09-09T00:04:52;16.30;87.40
46356;DHT22;32066;49.474;11.106;2022-09-09T00:07:27;16.40;87.50
46356;DHT22;32066;49.474;11.106;2022-09-09T00:10:03;16.40;87.20
46356;DHT22;32066;49.474;11.106;2022-09-09T00:12:38;16.40;87.20
46356;DHT22;32066;49.474;11.106;2022-09-09T00:15:11;16.40;87.20
46356;DHT22;32066;49.474;11.106;2022-09-09T00:17:44;16.30;87.40
46356;DHT22;32066;49.474;11.106;2022-09-09T00:20:16;16.10;87.90
46356;DHT22;32066;49.474;11.106;2022-09-09T00:22:47;16.20;87.90
46356;DHT22;32066;49.474;11.106;2022-09-09T00:25:21;16.10;88.30
46356;DHT22;32066;49.474;11.106;2022-09-09T00:27:50;16.20;88.10
46356;DHT22;32066;49.474;11.106;2022-09-09T00:30:18;16.20;88.10
46356;DHT22;32066;49.474;11.106;2022-09-09T00:32:49;16.30;87.70
46356;DHT22;32066;49.474;11.106;2022-09-09T00:35:21;16.20;87.90
46356;DHT22;32066;49.474;11.106;2022-09-09T00:37:53;16.10;88.20
46356;DHT22;32066;49.474;11.106;2022-09-09T00:40:29;16.00;88.50
46356;DHT22;32066;49.474;11.106;2022-09-09T00:43:25;16.10;89.40
46356;DHT22;32066;49.474;11.106;2022-09-09T00:46:18;16.10;88.90
46356;DHT22;32066;49.474;11.106;2022-09-09T00:48:54;16.10;88.70
46356;DHT22;32066;49.474;11.106;2022-09-09T00:51:30;16.00;89.10
46356;DHT22;32066;49.474;11.106;2022-09-09T00:54:30;16.10;89.20
46356;DHT22;32066;49.474;11.106;2022-09-09T00:57:10;16.00;89.30
46356;DHT22;32066;49.474;11.106;2022-09-09T00:59:46;16.10;88.80
46356;DHT22;32066;49.474;11.106;2022-09-09T01:02:18;16.10;88.60
46356;DHT22;32066;49.474;11.106;2022-09-09T01:04:48;16.20;88.10
46356;DHT22;32066;49.474;11.106;2022-09-09T01:07:17;16.30;87.80
46356;DHT22;32066;49.474;11.106;2022-09-09T01:09:52;16.30;87.80
46356;DHT22;32066;49.474;11.106;2022-09-09T01:12:26;16.40;87.10
46356;DHT22;32066;49.474;11.106;2022-09-09T01:15:03;16.50;86.30
46356;DHT22;32066;49.474;11.106;2022-09-09T01:17:32;16.60;85.70
46356;DHT22;32066;49.474;11.106;2022-09-09T01:20:10;16.60;85.30
46356;DHT22;32066;49.474;11.106;2022-09-09T01:22:55;16.60;85.30
46356;DHT22;32066;49.474;11.106;2022-09-09T01:28:26;16.60;84.60
46356;DHT22;32066;49.474;11.106;2022-09-09T01:30:59;16.60;84.60
46356;DHT22;32066;49.474;11.106;2022-09-09T01:33:31;16.60;84.50
46356;DHT22;32066;49.474;11.106;2022-09-09T01:36:02;16.60;85.10
46356;DHT22;32066;49.474;11.106;2022-09-09T01:38:37;16.50;85.20
46356;DHT22;32066;49.474;11.106;2022-09-09T01:41:05;16.50;85.80
46356;DHT22;32066;49.474;11.106;2022-09-09T01:43:55;16.30;86.40
46356;DHT22;32066;49.474;11.106;2022-09-09T01:46:22;16.30;86.60
46356;DHT22;32066;49.474;11.106;2022-09-09T01:48:51;16.30;86.60
46356;DHT22;32066;49.474;11.106;2022-09-09T01:51:19;16.30;86.20
46356;DHT22;32066;49.474;11.106;2022-09-09T01:53:47;16.40;86.50
46356;DHT22;32066;49.474;11.106;2022-09-09T01:56:24;16.20;87.10
46356;DHT22;32066;49.474;11.106;2022-09-09T01:59:04;16.30;87.20
46356;DHT22;32066;49.474;11.106;2022-09-09T02:01:58;16.40;86.90
46356;DHT22;32066;49.474;11.106;2022-09-09T02:04:36;16.40;87.70
46356;DHT22;32066;49.474;11.106;2022-09-09T02:07:22;16.40;87.20
46356;DHT22;32066;49.474;11.106;2022-09-09T02:09:59;16.30;87.30
46356;DHT22;32066;49.474;11.106;2022-09-09T02:12:28;16.20;88.10
46356;DHT22;32066;49.474;11.106;2022-09-09T02:15:03;16.20;88.00
46356;DHT22;32066;49.474;11.106;2022-09-09T02:17:42;16.10;88.60
46356;DHT22;32066;49.474;11.106;2022-09-09T02:20:14;16.10;88.90
46356;DHT22;32066;49.474;11.106;2022-09-09T02:22:49;16.10;88.80
46356;DHT22;32066;49.474;11.106;2022-09-09T02:25:21;16.10;89.20
46356;DHT22;32066;49.474;11.106;2022-09-09T02:27:50;16.00;89.40
46356;DHT22;32066;49.474;11.106;2022-09-09T02:30:19;16.10;89.10
46356;DHT22;32066;49.474;11.106;2022-09-09T02:32:54;16.00;89.40
46356;DHT22;32066;49.474;11.106;2022-09-09T02:35:31;15.90;89.80
46356;DHT22;32066;49.474;11.106;2022-09-09T02:38:01;16.00;89.60
46356;DHT22;32066;49.474;11.106;2022-09-09T02:40:29;16.10;89.50
46356;DHT22;32066;49.474;11.106;2022-09-09T02:43:00;16.10;89.60
46356;DHT22;32066;49.474;11.106;2022-09-09T02:45:36;16.10;89.10
46356;DHT22;32066;49.474;11.106;2022-09-09T02:48:13;16.10;89.10
46356;DHT22;32066;49.474;11.106;2022-09-09T02:50:49;16.20;89.20
46356;DHT22;32066;49.474;11.106;2022-09-09T02:53:23;16.30;88.70
46356;DHT22;32066;49.474;11.106;2022-09-09T02:55:55;16.20;88.70
46356;DHT22;32066;49.474;11.106;2022-09-09T02:58:23;16.10;89.30
46356;DHT22;32066;49.474;11.106;2022-09-09T03:01:03;16.10;89.70
46356;DHT22;32066;49.474;11.106;2022-09-09T03:03:31;16.20;89.20
46356;DHT22;32066;49.474;11.106;2022-09-09T03:06:00;16.20;89.20
46356;DHT22;32066;49.474;11.106;2022-09-09T03:08:27;16.30;88.80
46356;DHT22;32066;49.474;11.106;2022-09-09T03:10:58;16.30;88.50
46356;DHT22;32066;49.474;11.106;2022-09-09T03:13:28;16.10;89.30
46356;DHT22;32066;49.474;11.106;2022-09-09T03:15:55;16.10;89.50
46356;DHT22;32066;49.474;11.106;2022-09-09T03:18:24;16.10;89.80
46356;DHT22;32066;49.474;11.106;2022-09-09T03:20:53;16.10;89.40
46356;DHT22;32066;49.474;11.106;2022-09-09T03:23:21;16.10;89.50
46356;DHT22;32066;49.474;11.106;2022-09-09T03:25:48;16.20;89.30
46356;DHT22;32066;49.474;11.106;2022-09-09T03:28:20;16.30;89.10
46356;DHT22;32066;49.474;11.106;2022-09-09T03:30:48;16.40;88.70
46356;DHT22;32066;49.474;11.106;2022-09-09T03:33:15;16.40;88.50
46356;DHT22;32066;49.474;11.106;2022-09-09T03:35:46;16.40;88.70
46356;DHT22;32066;49.474;11.106;2022-09-09T03:38:15;16.40;88.60
46356;DHT22;32066;49.474;11.106;2022-09-09T03:40:49;16.40;88.80
46356;DHT22;32066;49.474;11.106;2022-09-09T03:43:17;16.40;88.70
46356;DHT22;32066;49.474;11.106;2022-09-09T03:45:45;16.50;88.30
46356;DHT22;32066;49.474;11.106;2022-09-09T03:48:13;16.40;88.70
46356;DHT22;32066;49.474;11.106;2022-09-09T03:50:45;16.30;89.20
46356;DHT22;32066;49.474;11.106;2022-09-09T03:53:13;16.30;89.30
46356;DHT22;32066;49.474;11.106;2022-09-09T03:55:44;16.40;89.00
46356;DHT22;32066;49.474;11.106;2022-09-09T03:58:12;16.30;89.00
46356;DHT22;32066;49.474;11.106;2022-09-09T04:00:39;16.40;89.20
46356;DHT22;32066;49.474;11.106;2022-09-09T04:03:08;16.40;89.10
46356;DHT22;32066;49.474;11.106;2022-09-09T04:05:35;16.30;89.20
46356;DHT22;32066;49.474;11.106;2022-09-09T04:08:06;16.30;90.00
46356;DHT22;32066;49.474;11.106;2022-09-09T04:10:34;16.20;89.80
46356;DHT22;32066;49.474;11.106;2022-09-09T04:13:03;16.20;89.90
46356;DHT22;32066;49.474;11.106;2022-09-09T04:15:30;16.10;90.00
46356;DHT22;32066;49.474;11.106;2022-09-09T04:17:58;16.00;90.40
46356;DHT22;32066;49.474;11.106;2022-09-09T04:20:26;16.20;90.00
46356;DHT22;32066;49.474;11.106;2022-09-09T04:22:53;16.40;89.70
46356;DHT22;32066;49.474;11.106;2022-09-09T04:25:22;16.30;89.60
46356;DHT22;32066;49.474;11.106;2022-09-09T04:27:53;16.20;90.00
46356;DHT22;32066;49.474;11.106;2022-09-09T04:30:20;16.10;90.10
46356;DHT22;32066;49.474;11.106;2022-09-09T04:32:47;16.10;90.30
46356;DHT22;32066;49.474;11.106;2022-09-09T04:35:15;16.10;90.40
46356;DHT22;32066;49.474;11.106;2022-09-09T04:37:41;16.10;90.30
46356;DHT22;32066;49.474;11.106;2022-09-09T04:40:09;16.20;90.20
46356;DHT22;32066;49.474;11.106;2022-09-09T04:42:37;16.20;90.20
46356;DHT22;32066;49.474;11.106;2022-09-09T04:45:05;16.10;90.40
46356;DHT22;32066;49.474;11.106;2022-09-09T04:47:33;16.10;90.40
46356;DHT22;32066;49.474;11.106;2022-09-09T04:50:01;16.00;90.50
46356;DHT22;32066;49.474;11.106;2022-09-09T04:52:29;16.30;90.30
46356;DHT22;32066;49.474;11.106;2022-09-09T04:54:55;16.10;90.20
46356;DHT22;32066;49.474;11.106;2022-09-09T04:57:22;16.20;90.30
46356;DHT22;32066;49.474;11.106;2022-09-09T04:59:51;16.20;90.20
46356;DHT22;32066;49.474;11.106;2022-09-09T05:02:18;16.10;90.30
46356;DHT22;32066;49.474;11.106;2022-09-09T05:04:45;16.10;90.40
46356;DHT22;32066;49.474;11.106;2022-09-09T05:07:12;16.10;91.60
46356;DHT22;32066;49.474;11.106;2022-09-09T05:09:40;17.00;95.80
46356;DHT22;32066;49.474;11.106;2022-09-09T05:12:07;17.70;93.90
46356;DHT22;32066;49.474;11.106;2022-09-09T05:14:35;18.30;91.90
46356;DHT22;32066;49.474;11.106;2022-09-09T05:17:05;18.80;90.10
46356;DHT22;32066;49.474;11.106;2022-09-09T05:19:32;18.00;83.70
46356;DHT22;32066;49.474;11.106;2022-09-09T05:21:58;17.70;84.80
46356;DHT22;32066;49.474;11.106;2022-09-09T05:24:34;17.30;85.80
46356;DHT22;32066;49.474;11.106;2022-09-09T05:27:03;16.90;87.40
46356;DHT22;32066;49.474;11.106;2022-09-09T05:29:32;16.70;88.50
46356;DHT22;32066;49.474;11.106;2022-09-09T05:32:00;16.70;89.10
46356;DHT22;32066;49.474;11.106;2022-09-09T05:34:28;16.50;88.80
46356;DHT22;32066;49.474;11.106;2022-09-09T05:36:55;16.60;88.40
46356;DHT22;32066;49.474;11.106;2022-09-09T05:39:23;16.50;88.00
46356;DHT22;32066;49.474;11.106;2022-09-09T05:41:50;16.50;88.60
46356;DHT22;32066;49.474;11.106;2022-09-09T05:44:17;16.50;88.30
46356;DHT22;32066;49.474;11.106;2022-09-09T05:46:45;16.40;88.00
46356;DHT22;32066;49.474;11.106;2022-09-09T05:49:13;16.10;89.50
46356;DHT22;32066;49.474;11.106;2022-09-09T05:51:42;16.00;89.60
46356;DHT22;32066;49.474;11.106;2022-09-09T05:54:12;16.10;89.40
46356;DHT22;32066;49.474;11.106;2022-09-09T05:56:43;16.10;89.50
46356;DHT22;32066;49.474;11.106;2022-09-09T05:59:10;15.90;90.10
46356;DHT22;32066;49.474;11.106;2022-09-09T06:01:38;15.90;90.30
46356;DHT22;32066;49.474;11.106;2022-09-09T06:04:08;16.00;90.10
46356;DHT22;32066;49.474;11.106;2022-09-09T06:06:37;16.10;90.00
46356;DHT22;32066;49.474;11.106;2022-09-09T06:09:12;16.10;89.90
46356;DHT22;32066;49.474;11.106;2022-09-09T06:11:42;16.20;89.60
46356;DHT22;32066;49.474;11.106;2022-09-09T06:14:10;16.30;89.50
46356;DHT22;32066;49.474;11.106;2022-09-09T06:16:39;16.30;88.90
46356;DHT22;32066;49.474;11.106;2022-09-09T06:19:17;16.20;89.60
46356;DHT22;32066;49.474;11.106;2022-09-09T06:21:45;16.30;89.30
46356;DHT22;32066;49.474;11.106;2022-09-09T06:24:14;16.40;89.70
46356;DHT22;32066;49.474;11.106;2022-09-09T06:26:43;16.50;89.00
46356;DHT22;32066;49.474;11.106;2022-09-09T06:29:13;16.70;87.60
46356;DHT22;32066;49.474;11.106;2022-09-09T06:31:41;16.60;87.30
46356;DHT22;32066;49.474;11.106;2022-09-09T06:34:14;16.30;88.50
46356;DHT22;32066;49.474;11.106;2022-09-09T06:36:45;16.40;89.10
46356;DHT22;32066;49.474;11.106;2022-09-09T06:39:13;16.50;88.70
46356;DHT22;32066;49.474;11.106;2022-09-09T06:41:41;16.50;88.20
46356;DHT22;32066;49.474;11.106;2022-09-09T06:44:21;16.60;87.60
46356;DHT22;32066;49.474;11.106;2022-09-09T06:46:48;16.30;87.90
46356;DHT22;32066;49.474;11.106;2022-09-09T06:49:15;16.40;88.10
46356;DHT22;32066;49.474;11.106;2022-09-09T06:51:42;16.30;88.50
46356;DHT22;32066;49.474;11.106;2022-09-09T06:54:11;16.40;87.70
46356;DHT22;32066;49.474;11.106;2022-09-09T06:56:42;16.50;87.90
46356;DHT22;32066;49.474;11.106;2022-09-09T06:59:17;16.60;86.40
46356;DHT22;32066;49.474;11.106;2022-09-09T07:01:44;16.50;86.10
46356;DHT22;32066;49.474;11.106;2022-09-09T07:04:13;16.30;86.80
46356;DHT22;32066;49.474;11.106;2022-09-09T07:06:44;16.60;86.70
46356;DHT22;32066;49.474;11.106;2022-09-09T07:09:15;16.80;85.50
46356;DHT22;32066;49.474;11.106;2022-09-09T07:11:51;17.00;86.00
46356;DHT22;32066;49.474;11.106;2022-09-09T07:14:20;17.20;84.30
46356;DHT22;32066;49.474;11.106;2022-09-09T07:16:53;17.40;87.70
46356;DHT22;32066;49.474;11.106;2022-09-09T07:19:20;17.80;82.50
46356;DHT22;32066;49.474;11.106;2022-09-09T07:21:50;18.20;83.60
46356;DHT22;32066;49.474;11.106;2022-09-09T07:24:19;18.00;79.70
46356;DHT22;32066;49.474;11.106;2022-09-09T07:26:46;18.20;81.30
46356;DHT22;32066;49.474;11.106;2022-09-09T07:29:15;18.10;79.40
46356;DHT22;32066;49.474;11.106;2022-09-09T07:31:42;18.10;79.60
46356;DHT22;32066;49.474;11.106;2022-09-09T07:34:16;18.00;80.30
46356;DHT22;32066;49.474;11.106;2022-09-09T07:36:44;17.90;80.30
46356;DHT22;32066;49.474;11.106;2022-09-09T07:39:13;18.00;79.50
46356;DHT22;32066;49.474;11.106;2022-09-09T07:41:46;17.90;80.00
46356;DHT22;32066;49.474;11.106;2022-09-09T07:44:19;17.90;80.00
46356;DHT22;32066;49.474;11.106;2022-09-09T07:46:50;18.00;80.60
46356;DHT22;32066;49.474;11.106;2022-09-09T07:49:22;17.80;79.70
46356;DHT22;32066;49.474;11.106;2022-09-09T07:51:50;17.90;80.20
46356;DHT22;32066;49.474;11.106;2022-09-09T07:54:19;17.90;80.10
46356;DHT22;32066;49.474;11.106;2022-09-09T07:56:49;17.90;80.10
46356;DHT22;32066;49.474;11.106;2022-09-09T07:59:18;18.10;80.30
46356;DHT22;32066;49.474;11.106;2022-09-09T08:01:49;18.10;80.10
46356;DHT22;32066;49.474;11.106;2022-09-09T08:04:23;18.10;79.20
46356;DHT22;32066;49.474;11.106;2022-09-09T08:06:52;17.80;80.30
46356;DHT22;32066;49.474;11.106;2022-09-09T08:09:21;18.00;80.00
46356;DHT22;32066;49.474;11.106;2022-09-09T08:11:51;18.20;78.50
46356;DHT22;32066;49.474;11.106;2022-09-09T08:14:20;18.30;77.90
46356;DHT22;32066;49.474;11.106;2022-09-09T08:16:50;18.40;79.00
46356;DHT22;32066;49.474;11.106;2022-09-09T08:19:21;18.60;77.90
46356;DHT22;32066;49.474;11.106;2022-09-09T08:21:49;18.90;77.20
46356;DHT22;32066;49.474;11.106;2022-09-09T08:24:16;19.20;76.20
46356;DHT22;32066;49.474;11.106;2022-09-09T08:26:48;19.30;75.10
46356;DHT22;32066;49.474;11.106;2022-09-09T08:29:19;19.20;74.00
46356;DHT22;32066;49.474;11.106;2022-09-09T08:31:49;19.20;73.50
46356;DHT22;32066;49.474;11.106;2022-09-09T08:34:16;19.40;74.30
46356;DHT22;32066;49.474;11.106;2022-09-09T08:36:49;19.60;73.60
46356;DHT22;32066;49.474;11.106;2022-09-09T08:39:19;19.60;72.60
46356;DHT22;32066;49.474;11.106;2022-09-09T08:44:54;20.00;72.00
46356;DHT22;32066;49.474;11.106;2022-09-09T08:47:29;20.00;70.90
46356;DHT22;32066;49.474;11.106;2022-09-09T08:50:13;20.00;70.10
46356;DHT22;32066;49.474;11.106;2022-09-09T08:52:51;19.90;70.10
46356;DHT22;32066;49.474;11.106;2022-09-09T08:55:21;19.90;70.20
46356;DHT22;32066;49.474;11.106;2022-09-09T08:57:50;19.90;69.80
46356;DHT22;32066;49.474;11.106;2022-09-09T09:00:19;19.80;70.40
46356;DHT22;32066;49.474;11.106;2022-09-09T09:02:51;19.80;70.90
46356;DHT22;32066;49.474;11.106;2022-09-09T09:05:23;20.00;70.20
46356;DHT22;32066;49.474;11.106;2022-09-09T09:08:00;20.00;70.90
46356;DHT22;32066;49.474;11.106;2022-09-09T09:10:41;20.00;71.40
46356;DHT22;32066;49.474;11.106;2022-09-09T09:13:15;20.00;70.90
46356;DHT22;32066;49.474;11.106;2022-09-09T09:15:48;20.10;70.30
46356;DHT22;32066;49.474;11.106;2022-09-09T09:18:17;20.20;70.20
46356;DHT22;32066;49.474;11.106;2022-09-09T09:20:51;20.30;70.50
46356;DHT22;32066;49.474;11.106;2022-09-09T09:23:22;20.50;70.00
46356;DHT22;32066;49.474;11.106;2022-09-09T09:25:56;20.70;69.20
46356;DHT22;32066;49.474;11.106;2022-09-09T09:28:26;20.60;68.50
46356;DHT22;32066;49.474;11.106;2022-09-09T09:31:04;20.60;68.10
46356;DHT22;32066;49.474;11.106;2022-09-09T09:33:38;20.70;67.90
46356;DHT22;32066;49.474;11.106;2022-09-09T09:36:08;20.80;66.90
46356;DHT22;32066;49.474;11.106;2022-09-09T09:38:37;20.90;66.80
46356;DHT22;32066;49.474;11.106;2022-09-09T09:41:05;21.10;67.00
46356;DHT22;32066;49.474;11.106;2022-09-09T09:43:34;21.10;65.50
46356;DHT22;32066;49.474;11.106;2022-09-09T09:46:20;21.50;64.80
46356;DHT22;32066;49.474;11.106;2022-09-09T09:48:56;21.40;62.90
46356;DHT22;32066;49.474;11.106;2022-09-09T09:51:24;21.20;63.00
46356;DHT22;32066;49.474;11.106;2022-09-09T09:53:51;21.30;63.50
46356;DHT22;32066;49.474;11.106;2022-09-09T09:56:27;21.50;63.80
46356;DHT22;32066;49.474;11.106;2022-09-09T09:58:55;21.80;62.70
46356;DHT22;32066;49.474;11.106;2022-09-09T10:01:32;22.00;61.20
46356;DHT22;32066;49.474;11.106;2022-09-09T10:04:14;21.90;60.90
46356;DHT22;32066;49.474;11.106;2022-09-09T10:06:44;21.80;60.90
46356;DHT22;32066;49.474;11.106;2022-09-09T10:09:22;21.70;60.70
46356;DHT22;32066;49.474;11.106;2022-09-09T10:11:56;21.70;60.60
46356;DHT22;32066;49.474;11.106;2022-09-09T10:14:30;21.60;61.30
46356;DHT22;32066;49.474;11.106;2022-09-09T10:17:11;21.80;60.90
46356;DHT22;32066;49.474;11.106;2022-09-09T10:19:44;21.60;60.50
46356;DHT22;32066;49.474;11.106;2022-09-09T10:22:25;21.80;60.70
46356;DHT22;32066;49.474;11.106;2022-09-09T10:25:16;21.90;59.90
46356;DHT22;32066;49.474;11.106;2022-09-09T10:27:55;21.90;60.10
46356;DHT22;32066;49.474;11.106;2022-09-09T10:30:31;22.10;59.90
46356;DHT22;32066;49.474;11.106;2022-09-09T10:33:08;22.10;58.80
46356;DHT22;32066;49.474;11.106;2022-09-09T10:35:41;22.00;59.50
46356;DHT22;32066;49.474;11.106;2022-09-09T10:38:20;22.00;58.40
46356;DHT22;32066;49.474;11.106;2022-09-09T10:41:15;21.90;59.30
46356;DHT22;32066;49.474;11.106;2022-09-09T10:44:12;21.90;58.90
46356;DHT22;32066;49.474;11.106;2022-09-09T10:47:10;21.90;61.00
46356;DHT22;32066;49.474;11.106;2022-09-09T10:50:08;22.00;59.90
46356;DHT22;32066;49.474;11.106;2022-09-09T10:52:45;21.50;61.30
46356;DHT22;32066;49.474;11.106;2022-09-09T10:55:20;21.50;61.20
46356;DHT22;32066;49.474;11.106;2022-09-09T10:57:52;21.60;60.90
46356;DHT22;32066;49.474;11.106;2022-09-09T11:00:22;21.70;60.70
46356;DHT22;32066;49.474;11.106;2022-09-09T11:02:52;21.60;60.70
46356;DHT22;32066;49.474;11.106;2022-09-09T11:05:27;21.60;60.80
46356;DHT22;32066;49.474;11.106;2022-09-09T11:07:58;21.70;60.00
46356;DHT22;32066;49.474;11.106;2022-09-09T11:10:32;21.70;60.20
46356;DHT22;32066;49.474;11.106;2022-09-09T11:13:03;21.80;61.90
46356;DHT22;32066;49.474;11.106;2022-09-09T11:15:36;21.80;60.10
46356;DHT22;32066;49.474;11.106;2022-09-09T11:18:09;21.80;60.10
46356;DHT22;32066;49.474;11.106;2022-09-09T11:20:39;21.80;61.00
46356;DHT22;32066;49.474;11.106;2022-09-09T11:23:11;21.80;59.80
46356;DHT22;32066;49.474;11.106;2022-09-09T11:25:41;21.90;60.10
46356;DHT22;32066;49.474;11.106;2022-09-09T11:28:27;21.90;60.10
46356;DHT22;32066;49.474;11.106;2022-09-09T11:31:07;21.90;60.80
46356;DHT22;32066;49.474;11.106;2022-09-09T11:33:59;21.90;61.00
46356;DHT22;32066;49.474;11.106;2022-09-09T11:36:47;22.00;60.30
46356;DHT22;32066;49.474;11.106;2022-09-09T11:42:24;21.90;59.70
46356;DHT22;32066;49.474;11.106;2022-09-09T11:44:52;21.90;60.00
46356;DHT22;32066;49.474;11.106;2022-09-09T11:47:25;21.90;59.80
46356;DHT22;32066;49.474;11.106;2022-09-09T11:49:55;22.10;59.30
46356;DHT22;32066;49.474;11.106;2022-09-09T11:52:35;22.10;59.10
46356;DHT22;32066;49.474;11.106;2022-09-09T11:55:09;22.00;59.20
46356;DHT22;32066;49.474;11.106;2022-09-09T11:57:38;22.00;59.70
46356;DHT22;32066;49.474;11.106;2022-09-09T12:00:06;22.00;58.50
46356;DHT22;32066;49.474;11.106;2022-09-09T12:02:48;21.90;58.80
46356;DHT22;32066;49.474;11.106;2022-09-09T12:05:16;22.00;59.80
46356;DHT22;32066;49.474;11.106;2022-09-09T12:07:51;21.90;58.10
46356;DHT22;32066;49.474;11.106;2022-09-09T12:10:23;21.80;57.90
46356;DHT22;32066;49.474;11.106;2022-09-09T12:12:52;21.90;57.30
46356;DHT22;32066;49.474;11.106;2022-09-09T12:15:24;21.90;57.20
46356;DHT22;32066;49.474;11.106;2022-09-09T12:17:55;21.90;57.50
46356;DHT22;32066;49.474;11.106;2022-09-09T12:20:23;21.80;57.40
46356;DHT22;32066;49.474;11.106;2022-09-09T12:23:19;21.80;57.40
46356;DHT22;32066;49.474;11.106;2022-09-09T12:26:16;21.80;57.90
46356;DHT22;32066;49.474;11.106;2022-09-09T12:28:53;21.40;60.30
46356;DHT22;32066;49.474;11.106;2022-09-09T12:31:23;21.50;56.60
46356;DHT22;32066;49.474;11.106;2022-09-09T12:33:51;21.60;57.40
46356;DHT22;32066;49.474;11.106;2022-09-09T12:36:20;21.70;56.60
46356;DHT22;32066;49.474;11.106;2022-09-09T12:38:49;21.80;54.80
46356;DHT22;32066;49.474;11.106;2022-09-09T12:41:22;22.10;53.70
46356;DHT22;32066;49.474;11.106;2022-09-09T12:43:50;22.30;52.20
46356;DHT22;32066;49.474;11.106;2022-09-09T12:46:23;22.30;51.20
46356;DHT22;32066;49.474;11.106;2022-09-09T12:48:52;22.30;51.40
46356;DHT22;32066;49.474;11.106;2022-09-09T12:51:24;22.30;53.30
46356;DHT22;32066;49.474;11.106;2022-09-09T12:53:54;22.50;54.30
46356;DHT22;32066;49.474;11.106;2022-09-09T12:56:23;22.80;54.40
46356;DHT22;32066;49.474;11.106;2022-09-09T12:58:54;22.70;54.90
46356;DHT22;32066;49.474;11.106;2022-09-09T13:01:23;22.50;54.80
46356;DHT22;32066;49.474;11.106;2022-09-09T13:03:51;22.40;54.90
46356;DHT22;32066;49.474;11.106;2022-09-09T13:06:20;22.30;55.50
46356;DHT22;32066;49.474;11.106;2022-09-09T13:08:48;22.40;55.80
46356;DHT22;32066;49.474;11.106;2022-09-09T13:11:21;22.50;58.80
46356;DHT22;32066;49.474;11.106;2022-09-09T13:13:51;22.30;60.70
46356;DHT22;32066;49.474;11.106;2022-09-09T13:16:20;22.10;62.70
46356;DHT22;32066;49.474;11.106;2022-09-09T13:18:48;22.20;62.00
46356;DHT22;32066;49.474;11.106;2022-09-09T13:21:16;22.20;61.50
46356;DHT22;32066;49.474;11.106;2022-09-09T13:23:49;22.10;60.90
46356;DHT22;32066;49.474;11.106;2022-09-09T13:26:23;21.70;62.80
46356;DHT22;32066;49.474;11.106;2022-09-09T13:28:50;21.60;63.40
46356;DHT22;32066;49.474;11.106;2022-09-09T13:31:23;21.50;63.20
46356;DHT22;32066;49.474;11.106;2022-09-09T13:33:52;21.20;65.30
46356;DHT22;32066;49.474;11.106;2022-09-09T13:36:28;21.30;65.50
46356;DHT22;32066;49.474;11.106;2022-09-09T13:38:57;21.50;64.80
46356;DHT22;32066;49.474;11.106;2022-09-09T13:41:29;21.80;65.60
46356;DHT22;32066;49.474;11.106;2022-09-09T13:43:57;22.10;64.00
46356;DHT22;32066;49.474;11.106;2022-09-09T13:46:31;22.60;63.40
46356;DHT22;32066;49.474;11.106;2022-09-09T13:49:01;22.80;60.80
46356;DHT22;32066;49.474;11.106;2022-09-09T13:51:33;22.70;61.20
46356;DHT22;32066;49.474;11.106;2022-09-09T13:54:03;22.70;62.50
46356;DHT22;32066;49.474;11.106;2022-09-09T13:56:31;22.70;62.20
46356;DHT22;32066;49.474;11.106;2022-09-09T13:58:58;22.70;61.50
46356;DHT22;32066;49.474;11.106;2022-09-09T14:01:25;22.80;61.70
46356;DHT22;32066;49.474;11.106;2022-09-09T14:03:53;22.90;59.90
46356;DHT22;32066;49.474;11.106;2022-09-09T14:06:20;22.80;58.70
46356;DHT22;32066;49.474;11.106;2022-09-09T14:08:48;22.90;59.60
46356;DHT22;32066;49.474;11.106;2022-09-09T14:11:16;23.00;59.50
46356;DHT22;32066;49.474;11.106;2022-09-09T14:13:44;23.20;59.90
46356;DHT22;32066;49.474;11.106;2022-09-09T14:16:11;23.50;58.00
46356;DHT22;32066;49.474;11.106;2022-09-09T14:18:38;23.80;54.60
46356;DHT22;32066;49.474;11.106;2022-09-09T14:21:04;23.70;54.00
46356;DHT22;32066;49.474;11.106;2022-09-09T14:23:31;23.40;55.10
46356;DHT22;32066;49.474;11.106;2022-09-09T14:25:58;23.30;55.00
46356;DHT22;32066;49.474;11.106;2022-09-09T14:28:25;23.20;56.00
46356;DHT22;32066;49.474;11.106;2022-09-09T14:30:58;23.20;56.20
46356;DHT22;32066;49.474;11.106;2022-09-09T14:33:25;23.30;56.30
46356;DHT22;32066;49.474;11.106;2022-09-09T14:35:56;23.20;56.10
46356;DHT22;32066;49.474;11.106;2022-09-09T14:38:23;22.80;56.70
46356;DHT22;32066;49.474;11.106;2022-09-09T14:40:50;22.90;57.40
46356;DHT22;32066;49.474;11.106;2022-09-09T14:43:17;23.00;57.50
46356;DHT22;32066;49.474;11.106;2022-09-09T14:45:44;23.00;56.80
46356;DHT22;32066;49.474;11.106;2022-09-09T14:48:12;22.60;58.00
46356;DHT22;32066;49.474;11.106;2022-09-09T14:50:40;22.30;58.90
46356;DHT22;32066;49.474;11.106;2022-09-09T14:53:07;22.00;59.00
46356;DHT22;32066;49.474;11.106;2022-09-09T14:55:34;22.00;60.30
46356;DHT22;32066;49.474;11.106;2022-09-09T14:58:01;21.80;60.50
46356;DHT22;32066;49.474;11.106;2022-09-09T15:00:28;21.90;61.00
46356;DHT22;32066;49.474;11.106;2022-09-09T15:02:55;21.40;61.50
46356;DHT22;32066;49.474;11.106;2022-09-09T15:05:23;21.40;62.70
46356;DHT22;32066;49.474;11.106;2022-09-09T15:07:50;21.40;63.20
46356;DHT22;32066;49.474;11.106;2022-09-09T15:10:17;21.10;64.50
46356;DHT22;32066;49.474;11.106;2022-09-09T15:12:44;21.10;65.00
46356;DHT22;32066;49.474;11.106;2022-09-09T15:15:11;21.20;64.70
46356;DHT22;32066;49.474;11.106;2022-09-09T15:17:38;21.20;65.10
46356;DHT22;32066;49.474;11.106;2022-09-09T15:20:06;21.30;64.80
46356;DHT22;32066;49.474;11.106;2022-09-09T15:22:34;21.30;64.50
46356;DHT22;32066;49.474;11.106;2022-09-09T15:25:03;21.20;64.70
46356;DHT22;32066;49.474;11.106;2022-09-09T15:27:31;21.50;63.90
46356;DHT22;32066;49.474;11.106;2022-09-09T15:29:59;21.40;64.10
46356;DHT22;32066;49.474;11.106;2022-09-09T15:32:26;21.50;64.20
46356;DHT22;32066;49.474;11.106;2022-09-09T15:34:53;21.40;63.20
46356;DHT22;32066;49.474;11.106;2022-09-09T15:37:20;21.50;63.70
46356;DHT22;32066;49.474;11.106;2022-09-09T15:39:48;21.40;63.50
46356;DHT22;32066;49.474;11.106;2022-09-09T15:42:15;21.30;64.40
46356;DHT22;32066;49.474;11.106;2022-09-09T15:44:42;21.30;64.50
46356;DHT22;32066;49.474;11.106;2022-09-09T15:47:11;21.60;63.80
46356;DHT22;32066;49.474;11.106;2022-09-09T15:49:39;21.90;62.20
46356;DHT22;32066;49.474;11.106;2022-09-09T15:52:06;22.20;61.90